Time;durP1;ratioP1;P1;durP2;ratioP2;P2;SDS_P1;SDS_P2;PMS_P1;PMS_P2;Temp;Humidity;BMP_temperature;BMP_pressure;BME280_temperature;BME280_humidity;BME280_pressure;Samples;Min_cycle;Max_cycle;Signal;HPM_P1;HPM_P2
2022/08/25 05:53:26;;;;;;;8.55;3.42;;;21.90;64.70;;;;;;6128534;23;20041;-77
2022/08/25 05:55:53;;;;;;;7.10;3.60;;;21.90;65.10;;;;;;6129249;23;20022;-78
2022/08/25 05:58:20;;;;;;;5.35;3.20;;;21.90;65.20;;;;;;6129474;23;20017;-77
2022/08/25 06:00:46;;;;;;;5.35;3.38;;;22.00;65.20;;;;;;6129306;23;20025;-74
2022/08/25 06:03:12;;;;;;;6.85;3.80;;;22.00;65.20;;;;;;6128646;23;20062;-83
2022/08/25 06:05:38;;;;;;;7.47;3.65;;;22.00;65.10;;;;;;6080095;23;20022;-76
2022/08/25 06:08:04;;;;;;;9.27;3.40;;;22.00;65.10;;;;;;6103597;23;20014;-77
2022/08/25 06:10:30;;;;;;;4.78;2.92;;;22.00;65.10;;;;;;6129517;23;20093;-77
2022/08/25 06:12:55;;;;;;;8.88;3.20;;;22.00;65.20;;;;;;6129424;23;20010;-77
2022/08/25 06:15:23;;;;;;;6.95;3.22;;;22.00;65.10;;;;;;6130000;23;20040;-81
2022/08/25 06:17:50;;;;;;;5.95;3.33;;;22.00;65.20;;;;;;6129089;23;20025;-76
2022/08/25 06:20:19;;;;;;;5.28;2.92;;;22.00;65.20;;;;;;6103533;23;20044;-77
2022/08/25 06:22:44;;;;;;;8.10;3.90;;;22.10;65.20;;;;;;6129260;23;20013;-74
2022/08/25 06:25:12;;;;;;;10.55;3.95;;;22.10;65.30;;;;;;6104233;23;20465;-77
2022/08/25 06:27:39;;;;;;;9.07;3.08;;;22.10;65.20;;;;;;6129120;23;20057;-77
2022/08/25 06:30:06;;;;;;;8.35;3.97;;;22.10;65.10;;;;;;6129265;23;20088;-76
2022/08/25 06:32:38;;;;;;;5.85;3.50;;;22.10;64.90;;;;;;6129141;23;20299;-78
2022/08/25 08:19:02;;;;;;;8.13;3.38;;;23.10;68.20;;;;;;6131969;23;20165;-77
2022/08/25 08:21:31;;;;;;;10.63;3.47;;;23.10;68.30;;;;;;6127529;23;20045;-77
2022/08/25 08:23:58;;;;;;;10.02;3.35;;;23.20;68.40;;;;;;6101356;23;20411;-79
2022/08/25 08:26:28;;;;;;;12.70;3.50;;;23.20;68.40;;;;;;6129801;23;20036;-80
2022/08/25 08:28:54;;;;;;;24.40;3.42;;;23.20;68.70;;;;;;6129443;23;20437;-75
2022/08/25 08:31:22;;;;;;;12.00;3.30;;;23.20;68.90;;;;;;6075347;23;20289;-77
2022/08/25 08:33:49;;;;;;;19.38;3.63;;;23.30;69.00;;;;;;6129794;23;20419;-78
2022/08/25 08:36:16;;;;;;;12.27;3.13;;;23.30;69.10;;;;;;6104460;23;20376;-79
2022/08/25 08:38:42;;;;;;;11.30;3.60;;;23.40;69.20;;;;;;6130069;23;20073;-74
2022/08/25 08:44:11;;;;;;;14.40;3.50;;;23.40;69.20;;;;;;6130260;23;20025;-79
2022/08/25 08:47:09;;;;;;;14.10;3.53;;;23.40;68.80;;;;;;6130108;23;20311;-77
2022/08/25 08:49:42;;;;;;;25.65;4.13;;;23.40;69.20;;;;;;6129931;23;20018;-74
2022/08/25 08:52:12;;;;;;;24.17;4.35;;;23.50;69.00;;;;;;6130464;23;20026;-83
2022/08/25 08:54:40;;;;;;;27.95;5.25;;;23.50;68.90;;;;;;6129749;23;20022;-75
2022/08/25 08:57:18;;;;;;;15.85;4.82;;;23.50;69.40;;;;;;6130083;23;20016;-75
2022/08/25 08:59:52;;;;;;;18.30;4.10;;;23.50;69.80;;;;;;6129726;23;20025;-75
2022/08/25 09:02:47;;;;;;;12.05;3.08;;;23.60;69.40;;;;;;6130100;23;20033;-77
2022/08/25 09:05:18;;;;;;;11.88;3.45;;;23.60;69.50;;;;;;6130078;23;20359;-76
2022/08/25 09:07:49;;;;;;;20.08;3.75;;;23.60;69.10;;;;;;6130092;23;20077;-78
2022/08/25 09:10:17;;;;;;;10.82;3.17;;;23.60;69.10;;;;;;6129410;23;20319;-77
2022/08/25 09:13:10;;;;;;;15.20;3.78;;;23.70;69.10;;;;;;6130250;23;20315;-77
2022/08/25 09:18:57;;;;;;;12.32;3.22;;;23.70;69.00;;;;;;6165841;23;20025;-77
2022/08/25 09:21:45;;;;;;;12.65;3.10;;;23.70;68.90;;;;;;6189628;23;20095;-77
2022/08/25 09:24:29;;;;;;;11.68;3.20;;;23.70;68.70;;;;;;6189225;23;20026;-76
2022/08/25 09:27:04;;;;;;;10.13;2.92;;;23.70;69.20;;;;;;6189442;23;20402;-77
2022/08/25 09:30:01;;;;;;;5.50;2.65;;;23.70;68.60;;;;;;6188739;23;20017;-74
2022/08/25 09:32:31;;;;;;;6.28;2.60;;;23.80;69.20;;;;;;6189018;23;20047;-77
2022/08/25 09:35:00;;;;;;;9.18;3.00;;;23.80;68.40;;;;;;6162796;23;20013;-76
2022/08/25 09:37:26;;;;;;;4.82;2.58;;;23.80;68.40;;;;;;6164118;23;20017;-76
2022/08/25 09:39:51;;;;;;;4.72;2.30;;;23.80;68.50;;;;;;6188487;23;20013;-78
2022/08/25 09:42:19;;;;;;;4.10;2.15;;;23.80;68.20;;;;;;6162940;23;20017;-80
2022/08/25 09:44:47;;;;;;;4.72;2.60;;;23.80;68.20;;;;;;6213196;23;20017;-75
2022/08/25 09:47:20;;;;;;;5.25;2.70;;;23.80;68.00;;;;;;6213013;23;20021;-78
2022/08/25 09:49:59;;;;;;;6.65;2.70;;;23.80;68.00;;;;;;6212140;23;20318;-77
2022/08/25 09:52:27;;;;;;;6.72;2.83;;;23.90;68.10;;;;;;6212901;23;20079;-78
2022/08/25 09:55:18;;;;;;;5.47;2.72;;;23.80;67.90;;;;;;6162550;23;20017;-78
2022/08/25 09:57:48;;;;;;;5.57;2.28;;;23.90;67.90;;;;;;6167674;23;20148;-78
2022/08/25 10:00:27;;;;;;;5.05;2.50;;;23.90;67.90;;;;;;6189325;23;20056;-77
2022/08/25 10:03:21;;;;;;;3.15;2.30;;;23.90;68.00;;;;;;6188675;23;20095;-78
2022/08/25 10:05:56;;;;;;;3.60;2.10;;;23.90;68.20;;;;;;6184431;23;20088;-76
2022/08/25 10:08:31;;;;;;;5.00;1.83;;;23.90;67.60;;;;;;6188175;23;20048;-75
2022/08/25 10:10:58;;;;;;;6.90;2.88;;;24.00;65.40;;;;;;6188414;23;20021;-75
2022/08/25 10:13:40;;;;;;;8.40;2.22;;;24.00;64.20;;;;;;6187964;23;20028;-75
2022/08/25 10:16:22;;;;;;;6.13;2.13;;;24.00;64.50;;;;;;6187239;23;20032;-72
2022/08/25 10:19:03;;;;;;;6.95;1.92;;;24.00;64.30;;;;;;6186041;23;20028;-75
2022/08/25 10:21:29;;;;;;;6.95;1.92;;;24.00;65.30;;;;;;6187078;23;20329;-76
2022/08/25 10:23:55;;;;;;;9.07;2.55;;;24.00;65.50;;;;;;6188518;23;20017;-75
2022/08/25 10:26:49;;;;;;;3.70;2.20;;;24.10;66.00;;;;;;6189198;23;20013;-74
2022/08/25 10:29:37;;;;;;;8.63;2.30;;;24.10;66.50;;;;;;6212908;23;20025;-76
2022/08/25 10:32:08;;;;;;;10.10;2.17;;;24.10;66.80;;;;;;6187034;23;20151;-75
2022/08/25 10:34:56;;;;;;;11.68;2.38;;;24.10;66.80;;;;;;6188255;23;20363;-80
2022/08/25 10:37:31;;;;;;;9.95;2.60;;;24.10;67.40;;;;;;6212396;23;20021;-75
2022/08/25 10:40:21;;;;;;;7.80;2.20;;;24.10;67.60;;;;;;6188519;23;20095;-75
2022/08/25 10:43:05;;;;;;;10.35;2.67;;;24.10;67.60;;;;;;6162174;23;20028;-76
2022/08/25 10:45:41;;;;;;;12.02;2.78;;;24.20;67.70;;;;;;6188599;23;20021;-75
2022/08/25 10:48:16;;;;;;;9.07;2.55;;;24.10;67.60;;;;;;6188331;23;20036;-77
2022/08/25 10:51:00;;;;;;;12.88;2.33;;;24.20;68.30;;;;;;6188273;23;20021;-75
2022/08/25 10:53:43;;;;;;;7.45;2.50;;;24.20;67.90;;;;;;6138693;23;20346;-74
2022/08/25 10:56:11;;;;;;;15.60;2.88;;;24.20;68.00;;;;;;6188373;23;20013;-77
2022/08/25 10:58:40;;;;;;;9.75;2.70;;;24.20;67.70;;;;;;6188275;23;20071;-77
2022/08/25 11:01:36;;;;;;;14.27;3.30;;;24.20;68.10;;;;;;6187814;23;20017;-75
2022/08/25 11:04:20;;;;;;;15.50;3.13;;;24.20;68.10;;;;;;6162096;23;20083;-76
2022/08/25 11:06:51;;;;;;;9.80;2.53;;;24.20;68.20;;;;;;6188524;23;20024;-75
2022/08/25 11:09:27;;;;;;;8.63;2.60;;;24.20;68.00;;;;;;6188018;23;20049;-75
2022/08/25 11:12:05;;;;;;;7.03;2.38;;;24.20;67.90;;;;;;6187939;23;20036;-77
2022/08/25 11:14:45;;;;;;;9.93;2.50;;;24.20;67.80;;;;;;6187737;23;20017;-76
2022/08/25 11:17:20;;;;;;;8.43;2.47;;;24.20;67.70;;;;;;6187994;23;20016;-76
2022/08/25 11:19:50;;;;;;;10.65;2.42;;;24.20;67.50;;;;;;6211472;23;20013;-76
2022/08/25 11:22:29;;;;;;;5.90;2.20;;;24.20;67.50;;;;;;6187775;23;20096;-76
2022/08/25 11:25:18;;;;;;;8.57;2.30;;;24.30;67.60;;;;;;6188996;23;20091;-76
2022/08/25 11:28:02;;;;;;;5.20;2.17;;;24.20;67.30;;;;;;6187644;23;20115;-76
2022/08/25 11:30:28;;;;;;;6.22;2.55;;;24.20;67.30;;;;;;6187792;23;20060;-75
2022/08/25 11:32:55;;;;;;;4.18;1.90;;;24.20;67.30;;;;;;6187220;23;20052;-76
2022/08/25 11:35:39;;;;;;;7.60;2.35;;;24.20;67.30;;;;;;6187405;23;20028;-77
2022/08/25 11:38:31;;;;;;;6.88;2.17;;;24.30;67.40;;;;;;6187568;23;20096;-76
2022/08/25 11:41:15;;;;;;;6.57;2.15;;;24.20;67.40;;;;;;6187354;23;20025;-76
2022/08/25 11:43:56;;;;;;;7.57;2.17;;;24.20;67.30;;;;;;6187782;23;20021;-76
2022/08/25 11:46:50;;;;;;;6.35;2.55;;;24.20;67.30;;;;;;6187784;23;20033;-77
2022/08/25 11:49:33;;;;;;;6.38;1.92;;;24.20;67.30;;;;;;6161378;23;20017;-75
2022/08/25 11:51:59;;;;;;;4.15;2.20;;;24.20;67.30;;;;;;6187226;23;20021;-76
2022/08/25 11:54:37;;;;;;;6.47;1.80;;;24.20;67.20;;;;;;6188088;23;20092;-76
2022/08/25 11:57:20;;;;;;;4.85;2.10;;;24.20;67.30;;;;;;6187160;23;20099;-75
2022/08/25 11:59:50;;;;;;;4.60;2.30;;;24.20;67.40;;;;;;6188065;23;20358;-77
2022/08/25 12:02:38;;;;;;;6.53;1.92;;;24.20;67.20;;;;;;6211033;23;20044;-77
2022/08/25 12:05:12;;;;;;;5.10;2.20;;;24.30;67.40;;;;;;6187495;23;20017;-78
2022/08/25 12:11:02;;;;;;;7.22;2.45;;;24.20;67.40;;;;;;6161255;23;20049;-76
2022/08/25 12:13:49;;;;;;;2.80;1.88;;;24.20;67.40;;;;;;6187499;23;20343;-75
2022/08/25 12:16:38;;;;;;;3.08;1.77;;;24.20;67.40;;;;;;6187155;23;20067;-76
2022/08/25 12:19:34;;;;;;;2.08;1.55;;;24.20;67.50;;;;;;6186989;23;20059;-76
2022/08/25 12:22:03;;;;;;;5.18;2.25;;;24.20;67.50;;;;;;6186948;23;20096;-76
2022/08/25 12:24:50;;;;;;;5.60;1.90;;;24.20;67.30;;;;;;6187409;23;20095;-77
2022/08/25 12:27:54;;;;;;;5.60;1.98;;;24.30;67.50;;;;;;6187355;23;20094;-77
2022/08/25 12:30:30;;;;;;;4.13;1.65;;;24.20;67.50;;;;;;6160794;23;20374;-76
2022/08/25 12:33:13;;;;;;;4.43;1.70;;;24.20;67.50;;;;;;6186865;23;20020;-77
2022/08/25 12:35:57;;;;;;;3.10;1.90;;;24.30;67.50;;;;;;6186589;23;20029;-75
2022/08/25 12:38:35;;;;;;;2.25;1.60;;;24.20;67.60;;;;;;6188007;23;20063;-75
2022/08/25 12:41:13;;;;;;;3.63;1.90;;;24.20;67.70;;;;;;6187531;23;20048;-75
2022/08/25 12:43:51;;;;;;;4.75;2.08;;;24.20;67.80;;;;;;6187398;23;20021;-77
2022/08/25 12:46:26;;;;;;;2.75;1.58;;;24.20;67.60;;;;;;6186970;23;20048;-76
2022/08/25 12:49:01;;;;;;;4.72;1.58;;;24.30;67.80;;;;;;6187008;23;20080;-77
2022/08/25 12:51:52;;;;;;;3.63;1.73;;;24.30;67.70;;;;;;6211621;23;20024;-78
2022/08/25 12:54:37;;;;;;;3.78;1.83;;;24.30;66.40;;;;;;6189269;23;20291;-75
2022/08/25 12:57:36;;;;;;;5.10;1.77;;;24.30;66.70;;;;;;6161204;23;20012;-75
2022/08/25 13:00:25;;;;;;;7.47;2.30;;;24.30;66.80;;;;;;6187115;23;20579;-76
2022/08/25 13:03:06;;;;;;;2.70;1.52;;;24.30;64.80;;;;;;6186627;23;20101;-77
2022/08/25 13:05:43;;;;;;;2.85;1.30;;;24.30;64.50;;;;;;6187339;23;20024;-76
2022/08/25 13:08:12;;;;;;;4.90;1.77;;;24.40;63.90;;;;;;6188148;23;20100;-77
2022/08/25 13:10:49;;;;;;;4.30;1.80;;;24.40;61.60;;;;;;6188806;23;20052;-78
2022/08/25 13:13:48;;;;;;;3.65;1.92;;;24.40;63.50;;;;;;6188261;23;20365;-77
2022/08/25 13:16:26;;;;;;;3.85;1.83;;;24.50;64.20;;;;;;6188841;23;20025;-77
2022/08/25 13:18:56;;;;;;;4.32;1.90;;;24.50;62.80;;;;;;6188704;23;20410;-76
2022/08/25 13:21:29;;;;;;;4.72;1.65;;;24.50;63.00;;;;;;6188991;23;20056;-75
2022/08/25 13:24:00;;;;;;;3.85;1.60;;;24.50;64.40;;;;;;6138087;23;20036;-78
2022/08/25 13:26:49;;;;;;;2.78;1.40;;;24.40;65.60;;;;;;6212707;23;20017;-77
2022/08/25 13:29:20;;;;;;;2.45;1.70;;;24.40;65.60;;;;;;6213126;23;20017;-78
2022/08/25 13:31:56;;;;;;;2.15;1.77;;;24.40;65.40;;;;;;6189283;23;20044;-77
2022/08/25 13:34:31;;;;;;;1.40;1.20;;;24.40;65.90;;;;;;6163155;23;20088;-76
2022/08/25 13:40:07;;;;;;;2.53;1.30;;;24.40;66.80;;;;;;6188742;23;20017;-76
2022/08/25 13:42:32;;;;;;;2.17;1.30;;;24.40;67.00;;;;;;6162729;23;20018;-77
2022/08/25 13:44:58;;;;;;;2.20;1.38;;;24.40;66.90;;;;;;6188875;23;20108;-77
2022/08/25 13:47:36;;;;;;;2.20;1.52;;;24.40;67.10;;;;;;6188914;23;20017;-77
2022/08/25 13:50:31;;;;;;;1.88;1.23;;;24.40;67.30;;;;;;6188534;23;20060;-78
2022/08/25 13:53:14;;;;;;;3.13;1.40;;;24.40;67.50;;;;;;6188751;23;20013;-76
2022/08/25 13:55:43;;;;;;;3.75;1.50;;;24.40;67.00;;;;;;6188928;23;20096;-78
2022/08/25 13:58:15;;;;;;;2.58;1.30;;;24.40;66.70;;;;;;6189089;23;20021;-76
2022/08/25 14:00:47;;;;;;;4.80;1.90;;;24.40;63.90;;;;;;6189536;23;20302;-77
2022/08/25 14:03:31;;;;;;;4.70;1.50;;;24.50;63.60;;;;;;6188776;23;20017;-77
2022/08/25 14:06:25;;;;;;;1.45;1.17;;;24.50;63.50;;;;;;6188812;23;20032;-77
2022/08/25 14:08:59;;;;;;;2.55;1.65;;;24.50;64.60;;;;;;6184864;23;20021;-78
2022/08/25 14:11:33;;;;;;;3.13;1.40;;;24.50;65.10;;;;;;6188629;23;20017;-76
2022/08/25 14:14:08;;;;;;;3.45;1.30;;;24.50;65.00;;;;;;6189451;23;20301;-77
2022/08/25 14:16:53;;;;;;;2.08;1.15;;;24.50;65.50;;;;;;6188727;23;20017;-78
2022/08/25 14:19:22;;;;;;;2.83;1.30;;;24.50;66.40;;;;;;6188181;23;20021;-77
2022/08/25 14:21:49;;;;;;;4.05;1.63;;;24.50;66.40;;;;;;6188293;23;20017;-76
2022/08/25 14:24:20;;;;;;;3.97;1.70;;;24.50;66.60;;;;;;6212852;23;20021;-76
2022/08/25 14:26:46;;;;;;;4.93;1.60;;;24.50;66.90;;;;;;6189017;23;20096;-75
2022/08/25 14:29:13;;;;;;;4.75;1.77;;;24.50;67.10;;;;;;6162564;23;20028;-78
2022/08/25 14:31:42;;;;;;;4.05;1.65;;;24.50;64.60;;;;;;6188204;23;20120;-77
2022/08/25 14:34:17;;;;;;;7.65;1.95;;;24.60;61.10;;;;;;6188387;23;20034;-75
2022/08/25 14:36:43;;;;;;;3.25;1.58;;;24.70;61.60;;;;;;6188451;23;20021;-75
2022/08/25 14:39:10;;;;;;;3.05;1.65;;;24.80;58.70;;;;;;6188648;23;20021;-76
2022/08/25 14:41:39;;;;;;;3.08;1.70;;;24.90;59.60;;;;;;6187429;23;20013;-76
2022/08/25 14:44:06;;;;;;;3.55;1.50;;;24.90;61.80;;;;;;6188282;23;20027;-76
2022/08/25 14:46:35;;;;;;;3.33;1.83;;;24.90;61.70;;;;;;6162046;23;20374;-74
2022/08/25 14:49:07;;;;;;;2.95;2.22;;;24.90;59.10;;;;;;6188030;23;20295;-74
2022/08/25 14:51:34;;;;;;;1.83;1.40;;;24.90;60.40;;;;;;6188298;23;20013;-74
2022/08/25 14:54:04;;;;;;;3.33;1.40;;;25.00;58.80;;;;;;6188311;23;20017;-77
2022/08/25 14:56:31;;;;;;;3.25;1.40;;;24.90;60.10;;;;;;6188376;23;20410;-77
2022/08/25 14:58:57;;;;;;;2.05;1.48;;;24.90;59.50;;;;;;6188169;23;20076;-76
2022/08/25 16:36:05;;;;;;;19.27;5.57;;;25.50;59.20;;;;;;6189771;22;20024;-78
2022/08/25 16:38:31;;;;;;;24.85;7.28;;;25.50;67.10;;;;;;6188406;23;20021;-76
2022/08/25 16:40:57;;;;;;;21.40;6.03;;;25.50;65.80;;;;;;6188927;23;20092;-77
2022/08/25 16:43:22;;;;;;;16.42;4.97;;;25.50;67.10;;;;;;6188435;23;20020;-76
2022/08/25 16:45:57;;;;;;;14.98;4.30;;;25.60;68.20;;;;;;6189092;23;20160;-76
2022/08/25 16:48:23;;;;;;;11.82;2.60;;;25.60;66.90;;;;;;6189484;23;20029;-77
2022/08/25 16:50:49;;;;;;;12.43;3.72;;;25.60;62.60;;;;;;6189487;23;20017;-79
2022/08/25 16:56:03;;;;;;;5.13;1.75;;;25.60;61.90;;;;;;6188934;23;20493;-77
2022/08/25 16:58:29;;;;;;;8.05;2.83;;;25.60;57.30;;;;;;6162964;23;20428;-80
2022/08/25 17:01:06;;;;;;;8.38;2.75;;;25.70;60.60;;;;;;6188494;23;20048;-86
2022/08/25 17:03:33;;;;;;;3.67;1.83;;;25.70;61.90;;;;;;6188965;23;20476;-79
2022/08/25 17:05:59;;;;;;;7.40;2.92;;;25.70;58.10;;;;;;6189248;23;20059;-77
2022/08/25 17:08:28;;;;;;;4.75;1.83;;;25.70;61.00;;;;;;6189778;23;20397;-78
2022/08/25 17:11:07;;;;;;;4.28;2.22;;;25.70;58.90;;;;;;6163337;23;20107;-78
2022/08/25 17:13:34;;;;;;;5.47;2.22;;;25.70;59.90;;;;;;6189343;23;20024;-77
2022/08/25 17:16:00;;;;;;;3.58;1.90;;;25.70;60.50;;;;;;6189351;23;20065;-78
2022/08/25 17:18:27;;;;;;;4.15;1.92;;;25.70;60.70;;;;;;6189323;23;20017;-79
2022/08/25 17:21:08;;;;;;;4.45;2.17;;;25.70;61.10;;;;;;6189757;23;20025;-77
2022/08/25 20:21:22;;;;;;;28.55;25.75;;;24.60;67.90;;;;;;6118236;23;20036;-76
2022/08/25 20:26:32;;;;;;;30.98;27.88;;;24.40;69.40;;;;;;6128365;23;20026;-77
2022/08/25 20:28:58;;;;;;;30.95;27.73;;;24.30;70.00;;;;;;6128766;23;20069;-72
2022/08/25 20:31:24;;;;;;;32.20;28.95;;;24.30;70.50;;;;;;6128398;23;20018;-76
2022/08/25 20:33:49;;;;;;;33.33;30.17;;;24.20;70.90;;;;;;6128353;23;20018;-76
2022/08/25 20:36:16;;;;;;;33.38;30.20;;;24.20;71.70;;;;;;6128136;23;20026;-75
2022/08/25 20:38:43;;;;;;;32.45;29.17;;;24.20;71.30;;;;;;6128295;23;20304;-79
2022/08/25 20:41:12;;;;;;;32.55;29.13;;;24.10;71.60;;;;;;6127949;23;20018;-76
2022/08/25 20:43:39;;;;;;;33.72;30.23;;;24.10;71.80;;;;;;6128439;23;20019;-77
2022/08/25 20:46:06;;;;;;;32.70;29.48;;;24.00;71.80;;;;;;6128324;23;20060;-75
2022/08/25 20:48:33;;;;;;;33.70;30.40;;;24.00;71.90;;;;;;6128206;23;20022;-77
2022/08/25 20:51:04;;;;;;;33.05;29.48;;;23.90;72.10;;;;;;6128248;23;20025;-77
2022/08/25 20:53:32;;;;;;;33.38;29.98;;;23.90;72.40;;;;;;6127986;23;20029;-77
2022/08/25 20:55:58;;;;;;;35.50;31.58;;;23.90;72.50;;;;;;6128243;23;20018;-75
2022/08/25 20:58:24;;;;;;;36.20;32.80;;;23.80;72.70;;;;;;6128218;23;20486;-76
2022/08/25 21:00:49;;;;;;;37.55;33.88;;;23.80;72.90;;;;;;6128294;23;20033;-76
2022/08/25 21:03:16;;;;;;;35.25;31.80;;;23.80;73.00;;;;;;6128711;23;20022;-77
2022/08/25 21:05:42;;;;;;;37.35;33.65;;;23.80;73.20;;;;;;6128954;23;20014;-75
2022/08/25 21:08:09;;;;;;;37.70;34.10;;;23.80;73.30;;;;;;6128728;23;20307;-75
2022/08/25 21:10:35;;;;;;;36.38;32.85;;;23.70;73.40;;;;;;6127723;23;20057;-74
2022/08/25 21:13:01;;;;;;;39.25;35.30;;;23.70;73.50;;;;;;6128210;23;20026;-78
2022/08/25 21:15:27;;;;;;;38.88;33.22;;;23.70;73.60;;;;;;6128174;23;20088;-73
2022/08/25 21:17:54;;;;;;;41.15;36.80;;;23.70;73.70;;;;;;6127747;23;20033;-74
2022/08/25 21:20:22;;;;;;;39.63;35.17;;;23.60;73.80;;;;;;6152121;23;20026;-75
2022/08/25 21:22:48;;;;;;;38.55;34.63;;;23.60;73.90;;;;;;6127449;23;20068;-75
2022/08/25 21:25:16;;;;;;;40.53;36.33;;;23.60;74.10;;;;;;6127813;23;20018;-77
2022/08/25 21:27:42;;;;;;;38.85;35.00;;;23.60;74.20;;;;;;6128125;23;20018;-76
2022/08/25 21:30:09;;;;;;;40.25;36.13;;;23.50;74.20;;;;;;6128374;23;20093;-76
2022/08/25 21:32:34;;;;;;;41.58;35.25;;;23.50;74.30;;;;;;6129739;23;20021;-75
2022/08/25 21:35:00;;;;;;;40.58;36.40;;;23.50;74.50;;;;;;6130406;23;20013;-74
2022/08/25 21:37:26;;;;;;;39.45;35.20;;;23.40;74.50;;;;;;6129482;23;20093;-78
2022/08/25 21:39:53;;;;;;;39.35;35.10;;;23.40;74.60;;;;;;6154305;23;20022;-76
2022/08/25 21:42:21;;;;;;;37.08;33.45;;;23.40;74.60;;;;;;6129712;23;20327;-74
2022/08/25 21:44:47;;;;;;;37.47;33.70;;;23.40;74.70;;;;;;6129614;23;20018;-76
2022/08/25 21:47:12;;;;;;;36.50;32.85;;;23.40;74.60;;;;;;6129675;23;20032;-79
2022/08/25 21:49:38;;;;;;;38.47;34.53;;;23.40;74.70;;;;;;6129687;23;20017;-77
2022/08/25 21:52:05;;;;;;;36.85;33.05;;;23.30;74.70;;;;;;6129846;23;20031;-78
2022/08/25 21:54:31;;;;;;;35.75;32.28;;;23.30;74.70;;;;;;6130816;23;20419;-78
2022/08/25 21:57:00;;;;;;;34.05;30.75;;;23.30;74.60;;;;;;6129419;23;20028;-78
2022/08/25 21:59:28;;;;;;;34.00;30.70;;;23.20;74.70;;;;;;6129176;23;20025;-77
2022/08/25 22:02:06;;;;;;;31.33;27.95;;;23.20;74.80;;;;;;6129672;23;20041;-75
2022/08/25 22:04:32;;;;;;;31.35;27.98;;;23.20;74.90;;;;;;6130506;23;20163;-76
2022/08/25 22:06:59;;;;;;;29.77;26.70;;;23.20;75.00;;;;;;6130011;23;20493;-77
2022/08/25 22:09:25;;;;;;;27.85;24.33;;;23.20;75.20;;;;;;6129809;23;20014;-75
